Time;durP1;ratioP1;P1;durP2;ratioP2;P2;SDS_P1;SDS_P2;PMS_P1;PMS_P2;Temp;Humidity;BMP_temperature;BMP_pressure;BME280_temperature;BME280_humidity;BME280_pressure;Samples;Min_cycle;Max_cycle;Signal;HPM_P1;HPM_P2
2023/10/30 00:01:24;;;;;;;5.53;1.23;;;;;;;;;;5035518;28;20033;-87
2023/10/30 00:03:51;;;;;;;6.15;1.20;;;;;;;;;;5025760;28;20507;-89
2023/10/30 00:06:17;;;;;;;4.97;1.20;;;;;;;;;;5021266;28;20029;-88
2023/10/30 00:08:42;;;;;;;6.65;1.33;;;;;;;;;;5021606;28;20401;-87
2023/10/30 00:11:07;;;;;;;6.13;1.77;;;;;;;;;;5024796;28;20385;-88
2023/10/30 00:13:33;;;;;;;5.50;1.35;;;;;;;;;;5019036;28;20013;-88
2023/10/30 00:15:58;;;;;;;5.32;1.73;;;;;;;;;;5024908;28;20025;-88
2023/10/30 00:18:24;;;;;;;6.40;1.42;;;;;;;;;;5022421;28;20428;-87
2023/10/30 00:20:49;;;;;;;5.25;1.50;;;;;;;;;;5019148;28;20378;-88
2023/10/30 00:23:14;;;;;;;6.05;1.10;;;;;;;;;;5019031;28;20036;-82
2023/10/30 00:25:40;;;;;;;7.22;1.20;;;;;;;;;;5014515;28;20469;-81
2023/10/30 00:28:05;;;;;;;6.07;1.45;;;;;;;;;;5027105;28;20040;-82
2023/10/30 00:30:31;;;;;;;5.72;1.17;;;;;;;;;;5019905;28;20517;-82
2023/10/30 00:32:56;;;;;;;6.30;1.40;;;;;;;;;;5026060;28;20035;-81
2023/10/30 00:35:21;;;;;;;9.40;1.75;;;;;;;;;;5022047;28;20029;-81
2023/10/30 00:37:47;;;;;;;8.52;1.50;;;;;;;;;;5020359;28;20493;-81
2023/10/30 00:40:12;;;;;;;7.95;1.83;;;;;;;;;;5030150;28;20481;-80
2023/10/30 00:42:38;;;;;;;5.18;1.25;;;;;;;;;;5021522;28;20393;-81
2023/10/30 00:45:06;;;;;;;6.95;1.45;;;;;;;;;;5025918;28;20052;-81
2023/10/30 00:47:32;;;;;;;7.15;1.40;;;;;;;;;;5032596;28;20033;-81
2023/10/30 00:49:57;;;;;;;6.25;1.38;;;;;;;;;;5030416;28;20065;-83
2023/10/30 00:52:23;;;;;;;5.35;1.20;;;;;;;;;;5020055;28;20040;-81
2023/10/30 00:54:48;;;;;;;12.80;1.88;;;;;;;;;;5019019;28;20018;-81
2023/10/30 00:57:13;;;;;;;11.00;1.70;;;;;;;;;;5018353;28;22817;-80
2023/10/30 00:59:39;;;;;;;6.50;1.13;;;;;;;;;;5018612;28;20171;-81
2023/10/30 01:02:04;;;;;;;5.88;1.23;;;;;;;;;;5023909;28;20029;-89
2023/10/30 01:04:30;;;;;;;7.03;1.40;;;;;;;;;;5018340;28;20044;-92
2023/10/30 01:06:56;;;;;;;6.80;1.38;;;;;;;;;;5037544;28;20033;-92
2023/10/30 01:09:21;;;;;;;6.75;1.20;;;;;;;;;;5021906;28;20481;-82
2023/10/30 01:11:46;;;;;;;6.95;1.30;;;;;;;;;;5017035;28;20022;-81
2023/10/30 01:14:12;;;;;;;8.25;1.40;;;;;;;;;;5020835;28;20025;-81
2023/10/30 01:16:37;;;;;;;8.40;1.55;;;;;;;;;;5023314;28;20029;-81
2023/10/30 01:19:02;;;;;;;8.15;1.42;;;;;;;;;;5022298;28;20032;-81
2023/10/30 01:21:28;;;;;;;7.82;1.50;;;;;;;;;;5027331;28;21403;-80
2023/10/30 01:23:53;;;;;;;7.88;1.48;;;;;;;;;;5027351;28;20034;-81
2023/10/30 01:26:19;;;;;;;9.57;1.30;;;;;;;;;;5026088;28;20120;-93
2023/10/30 01:28:44;;;;;;;7.00;1.33;;;;;;;;;;5029888;28;20029;-89
2023/10/30 01:31:09;;;;;;;8.10;1.45;;;;;;;;;;5024126;28;20440;-93
2023/10/30 01:33:35;;;;;;;7.00;1.30;;;;;;;;;;5030138;28;20026;-88
2023/10/30 01:36:00;;;;;;;7.00;1.42;;;;;;;;;;5026880;28;20026;-89
2023/10/30 01:38:26;;;;;;;6.70;1.25;;;;;;;;;;5033079;28;20027;-89
2023/10/30 01:40:52;;;;;;;8.50;1.52;;;;;;;;;;5033919;28;20033;-89
2023/10/30 01:43:31;;;;;;;5.22;1.15;;;;;;;;;;5042797;28;20026;-86
2023/10/30 01:45:57;;;;;;;5.65;1.20;;;;;;;;;;5030571;28;20029;-89
2023/10/30 01:48:23;;;;;;;8.65;1.40;;;;;;;;;;5026229;28;20382;-89
2023/10/30 01:50:50;;;;;;;6.95;1.25;;;;;;;;;;5044262;28;20033;-88
2023/10/30 01:53:19;;;;;;;7.38;1.30;;;;;;;;;;5029038;28;20533;-88
2023/10/30 01:55:45;;;;;;;6.57;1.42;;;;;;;;;;5023187;28;20388;-87
2023/10/30 01:58:10;;;;;;;9.95;1.40;;;;;;;;;;5028591;28;22285;-89
2023/10/30 02:00:36;;;;;;;7.03;1.20;;;;;;;;;;5027318;28;20029;-87
2023/10/30 02:03:03;;;;;;;8.45;1.23;;;;;;;;;;5023810;28;20033;-88
2023/10/30 02:05:29;;;;;;;6.68;1.20;;;;;;;;;;5023118;28;20037;-88
2023/10/30 02:07:54;;;;;;;5.47;1.20;;;;;;;;;;5025464;28;20033;-88
2023/10/30 02:10:19;;;;;;;6.07;1.13;;;;;;;;;;5020610;28;20052;-89
2023/10/30 02:12:49;;;;;;;7.15;1.25;;;;;;;;;;5024520;28;20056;-87
2023/10/30 02:15:15;;;;;;;5.07;1.13;;;;;;;;;;5024759;28;20018;-88
2023/10/30 02:17:40;;;;;;;11.75;1.58;;;;;;;;;;5018628;28;20466;-87
2023/10/30 02:20:06;;;;;;;7.00;1.70;;;;;;;;;;5023010;28;20029;-88
2023/10/30 02:22:31;;;;;;;6.57;1.27;;;;;;;;;;5021474;28;20025;-88
2023/10/30 02:24:57;;;;;;;6.65;1.20;;;;;;;;;;5021752;28;20375;-88
2023/10/30 02:27:23;;;;;;;10.00;1.50;;;;;;;;;;5029335;28;20029;-88
2023/10/30 02:29:48;;;;;;;7.45;1.45;;;;;;;;;;5030161;28;20029;-88
2023/10/30 02:32:13;;;;;;;6.75;1.08;;;;;;;;;;5022130;28;20021;-89
2023/10/30 02:34:39;;;;;;;8.98;1.42;;;;;;;;;;5026344;28;20109;-89
2023/10/30 02:37:05;;;;;;;6.43;1.10;;;;;;;;;;5030329;28;20026;-90
2023/10/30 02:39:32;;;;;;;8.73;1.35;;;;;;;;;;5028853;28;21303;-88
2023/10/30 02:42:01;;;;;;;4.97;1.10;;;;;;;;;;5023137;28;20397;-88
2023/10/30 02:44:28;;;;;;;6.28;1.30;;;;;;;;;;5023039;28;20029;-82
2023/10/30 02:46:54;;;;;;;5.85;1.40;;;;;;;;;;5026357;28;20481;-83
2023/10/30 02:49:20;;;;;;;6.97;1.85;;;;;;;;;;5024766;28;20091;-82
2023/10/30 02:51:45;;;;;;;6.88;1.50;;;;;;;;;;5021314;28;20100;-81
2023/10/30 02:54:10;;;;;;;7.28;1.40;;;;;;;;;;5027939;28;20029;-82
2023/10/30 02:56:36;;;;;;;5.35;1.10;;;;;;;;;;5019602;28;20029;-81
2023/10/30 02:59:01;;;;;;;7.82;1.67;;;;;;;;;;5030372;28;20044;-81
2023/10/30 03:01:26;;;;;;;10.52;2.25;;;;;;;;;;5021614;28;20025;-80
2023/10/30 03:03:52;;;;;;;5.25;1.30;;;;;;;;;;5024341;28;20116;-82
2023/10/30 03:06:17;;;;;;;9.57;1.52;;;;;;;;;;5025084;28;20044;-82
2023/10/30 03:08:43;;;;;;;6.43;1.38;;;;;;;;;;5027316;28;20051;-81
2023/10/30 03:11:08;;;;;;;5.47;1.13;;;;;;;;;;5019139;28;20092;-81
2023/10/30 03:13:34;;;;;;;4.53;1.20;;;;;;;;;;5025147;28;20022;-81
2023/10/30 03:15:59;;;;;;;8.60;1.20;;;;;;;;;;5026425;28;20119;-81
2023/10/30 03:18:24;;;;;;;6.00;1.42;;;;;;;;;;5026430;28;20116;-81
2023/10/30 03:20:50;;;;;;;5.22;1.30;;;;;;;;;;5021683;28;20394;-81
2023/10/30 03:23:15;;;;;;;8.75;1.52;;;;;;;;;;5027357;28;20079;-81
2023/10/30 03:25:42;;;;;;;5.18;1.10;;;;;;;;;;5028975;28;20385;-84
2023/10/30 03:28:07;;;;;;;6.43;1.23;;;;;;;;;;5023229;28;20033;-81
2023/10/30 03:30:36;;;;;;;10.80;1.33;;;;;;;;;;5028869;28;20033;-80
2023/10/30 03:33:03;;;;;;;4.20;1.02;;;;;;;;;;5021402;28;20119;-82
2023/10/30 03:35:28;;;;;;;5.90;1.25;;;;;;;;;;5038914;28;20040;-81
2023/10/30 03:37:53;;;;;;;5.53;1.08;;;;;;;;;;5028451;28;20025;-81
2023/10/30 03:40:19;;;;;;;6.00;1.05;;;;;;;;;;5009618;28;20029;-81
2023/10/30 03:42:44;;;;;;;6.22;1.20;;;;;;;;;;5038529;28;20105;-81
2023/10/30 03:45:10;;;;;;;4.43;0.95;;;;;;;;;;5028270;28;20025;-81
2023/10/30 03:47:35;;;;;;;4.68;1.10;;;;;;;;;;5025976;28;20032;-82
2023/10/30 03:50:00;;;;;;;6.45;1.08;;;;;;;;;;5029175;28;20101;-81
2023/10/30 03:52:26;;;;;;;6.40;1.55;;;;;;;;;;5027078;28;20021;-82
2023/10/30 03:54:51;;;;;;;7.20;1.38;;;;;;;;;;5020656;28;20075;-82
2023/10/30 03:57:17;;;;;;;5.53;1.20;;;;;;;;;;5025272;28;20029;-82
2023/10/30 03:59:42;;;;;;;4.95;1.10;;;;;;;;;;5017319;28;20017;-83
2023/10/30 04:02:07;;;;;;;7.25;1.38;;;;;;;;;;5022305;28;20111;-82
2023/10/30 04:04:35;;;;;;;4.22;1.10;;;;;;;;;;5024318;28;20068;-82
2023/10/30 04:07:01;;;;;;;5.10;1.02;;;;;;;;;;5025815;28;20104;-82
2023/10/30 04:09:27;;;;;;;6.22;1.10;;;;;;;;;;5020645;28;20033;-82
2023/10/30 04:11:52;;;;;;;8.50;1.65;;;;;;;;;;5031069;28;20035;-83
2023/10/30 04:14:17;;;;;;;6.60;1.08;;;;;;;;;;5037808;28;20061;-82
2023/10/30 04:16:44;;;;;;;6.03;1.20;;;;;;;;;;5021413;28;20034;-82
2023/10/30 04:19:09;;;;;;;8.30;1.27;;;;;;;;;;5022950;28;20021;-82
2023/10/30 04:21:35;;;;;;;5.38;1.70;;;;;;;;;;5020189;28;21297;-82
2023/10/30 04:24:00;;;;;;;6.40;1.45;;;;;;;;;;5018804;28;20034;-83
2023/10/30 04:26:26;;;;;;;5.13;1.20;;;;;;;;;;5019286;28;20034;-82
2023/10/30 04:28:51;;;;;;;4.93;1.00;;;;;;;;;;5019938;28;20343;-83
2023/10/30 04:31:16;;;;;;;5.85;1.02;;;;;;;;;;5028335;28;20386;-82
2023/10/30 04:33:42;;;;;;;6.53;1.35;;;;;;;;;;5021373;28;20021;-82
2023/10/30 04:36:07;;;;;;;7.78;1.80;;;;;;;;;;5032810;28;20029;-82
2023/10/30 04:38:33;;;;;;;5.32;1.10;;;;;;;;;;5030681;28;20026;-82
2023/10/30 04:41:05;;;;;;;6.43;1.52;;;;;;;;;;5022814;28;20044;-82
2023/10/30 04:43:34;;;;;;;5.70;1.10;;;;;;;;;;5035646;28;20108;-82
2023/10/30 04:45:59;;;;;;;7.60;1.45;;;;;;;;;;5022971;28;20075;-83
2023/10/30 04:48:25;;;;;;;8.15;1.40;;;;;;;;;;5022651;28;20033;-81
2023/10/30 04:50:50;;;;;;;6.45;1.52;;;;;;;;;;5020782;28;20052;-82
2023/10/30 04:53:15;;;;;;;5.53;0.90;;;;;;;;;;5019806;28;20021;-82
2023/10/30 04:55:41;;;;;;;5.72;1.20;;;;;;;;;;5018685;28;20558;-82
2023/10/30 04:58:06;;;;;;;5.78;1.15;;;;;;;;;;5022555;28;20033;-83
2023/10/30 05:00:32;;;;;;;10.15;1.25;;;;;;;;;;5012641;28;20527;-83
2023/10/30 05:02:57;;;;;;;8.27;1.30;;;;;;;;;;5035477;28;20080;-82
2023/10/30 05:05:23;;;;;;;8.18;1.13;;;;;;;;;;5035082;28;21899;-82
2023/10/30 05:07:48;;;;;;;9.95;1.33;;;;;;;;;;5017199;28;20029;-82
2023/10/30 05:10:14;;;;;;;5.80;1.27;;;;;;;;;;5019825;28;20117;-83
2023/10/30 05:12:39;;;;;;;5.72;1.38;;;;;;;;;;5018991;28;20112;-83
2023/10/30 05:15:06;;;;;;;6.70;1.30;;;;;;;;;;5023487;28;20029;-82
2023/10/30 05:17:32;;;;;;;4.30;1.20;;;;;;;;;;5020289;28;20716;-82
2023/10/30 05:19:57;;;;;;;7.43;1.50;;;;;;;;;;5018713;28;20049;-82
2023/10/30 05:22:24;;;;;;;5.57;1.27;;;;;;;;;;5019661;28;20017;-83
2023/10/30 05:24:50;;;;;;;6.68;1.30;;;;;;;;;;5023197;28;20021;-82
2023/10/30 05:27:15;;;;;;;6.35;1.10;;;;;;;;;;5021428;28;20029;-82
2023/10/30 05:29:41;;;;;;;6.85;1.38;;;;;;;;;;5023275;28;20083;-82
2023/10/30 05:32:07;;;;;;;6.03;1.77;;;;;;;;;;5028161;28;20040;-82
2023/10/30 05:34:33;;;;;;;8.63;1.67;;;;;;;;;;5027246;28;20755;-88
2023/10/30 05:36:59;;;;;;;6.65;1.15;;;;;;;;;;5029724;28;20033;-88
2023/10/30 05:39:24;;;;;;;5.65;1.25;;;;;;;;;;5022043;28;20033;-88
2023/10/30 05:41:50;;;;;;;6.75;1.25;;;;;;;;;;5023802;28;20116;-86
2023/10/30 05:44:15;;;;;;;8.45;1.27;;;;;;;;;;5018756;28;20029;-87
2023/10/30 05:46:41;;;;;;;4.35;1.00;;;;;;;;;;5034369;28;20036;-87
2023/10/30 05:49:06;;;;;;;10.50;1.58;;;;;;;;;;5021144;28;20026;-88
2023/10/30 05:51:32;;;;;;;6.80;1.30;;;;;;;;;;5016323;28;20040;-85
2023/10/30 05:53:57;;;;;;;4.95;1.00;;;;;;;;;;5017629;28;20033;-84
2023/10/30 05:56:22;;;;;;;7.25;1.30;;;;;;;;;;5019757;28;20027;-86
2023/10/30 05:58:48;;;;;;;10.27;1.33;;;;;;;;;;5015363;28;20034;-87
2023/10/30 06:01:13;;;;;;;7.25;1.48;;;;;;;;;;5028824;28;20028;-89
2023/10/30 06:03:38;;;;;;;6.47;1.17;;;;;;;;;;5017025;28;20057;-89
2023/10/30 06:06:04;;;;;;;4.78;1.10;;;;;;;;;;5018148;28;20037;-89
2023/10/30 06:08:30;;;;;;;6.85;1.85;;;;;;;;;;5016077;28;20722;-87
2023/10/30 06:10:55;;;;;;;8.98;1.30;;;;;;;;;;5007710;28;20033;-83
2023/10/30 06:13:21;;;;;;;7.97;1.20;;;;;;;;;;5024150;28;20037;-85
2023/10/30 06:15:46;;;;;;;4.93;1.00;;;;;;;;;;5019079;28;20029;-92
2023/10/30 06:18:11;;;;;;;11.20;2.75;;;;;;;;;;5015369;28;20025;-93
2023/10/30 06:20:37;;;;;;;4.80;1.15;;;;;;;;;;5022482;28;20022;-89
2023/10/30 06:23:03;;;;;;;7.28;1.17;;;;;;;;;;5012994;28;20033;-86
2023/10/30 06:25:28;;;;;;;6.50;1.27;;;;;;;;;;5018000;28;20025;-91
2023/10/30 06:27:55;;;;;;;9.27;1.27;;;;;;;;;;5017056;28;20035;-88
2023/10/30 06:30:23;;;;;;;5.97;1.10;;;;;;;;;;5009611;28;20461;-92
2023/10/30 06:32:49;;;;;;;6.30;1.38;;;;;;;;;;5019627;28;20029;-88
2023/10/30 06:35:14;;;;;;;8.77;1.52;;;;;;;;;;5015153;28;20445;-88
2023/10/30 06:37:41;;;;;;;4.13;1.02;;;;;;;;;;5021737;28;20140;-88
2023/10/30 06:40:07;;;;;;;8.20;1.05;;;;;;;;;;5017871;28;20048;-89
2023/10/30 06:42:34;;;;;;;7.97;1.60;;;;;;;;;;5027841;28;20029;-88
2023/10/30 06:45:00;;;;;;;11.82;1.65;;;;;;;;;;5032591;28;20547;-88
2023/10/30 06:47:27;;;;;;;5.95;1.38;;;;;;;;;;5021187;28;20033;-88
2023/10/30 06:49:52;;;;;;;8.10;1.50;;;;;;;;;;5017019;28;20482;-87
2023/10/30 06:52:17;;;;;;;6.32;1.27;;;;;;;;;;5021841;28;20075;-87
2023/10/30 06:54:43;;;;;;;5.93;1.15;;;;;;;;;;5027764;28;20021;-82
2023/10/30 06:57:08;;;;;;;6.38;1.30;;;;;;;;;;5028247;28;20457;-81
2023/10/30 06:59:33;;;;;;;10.27;1.50;;;;;;;;;;5031786;28;20033;-82
2023/10/30 07:01:59;;;;;;;6.30;1.42;;;;;;;;;;5026824;28;20025;-81
2023/10/30 07:04:24;;;;;;;5.95;1.25;;;;;;;;;;5025909;28;20018;-82
2023/10/30 07:06:50;;;;;;;7.55;1.17;;;;;;;;;;5025468;28;20025;-82
2023/10/30 07:09:17;;;;;;;5.90;1.25;;;;;;;;;;5020685;28;20117;-84
2023/10/30 07:11:43;;;;;;;9.60;1.45;;;;;;;;;;5022207;28;20449;-82
2023/10/30 07:14:09;;;;;;;6.10;1.48;;;;;;;;;;5028927;28;20057;-81
2023/10/30 07:16:35;;;;;;;6.22;1.27;;;;;;;;;;5030928;28;20057;-81
2023/10/30 07:19:01;;;;;;;7.10;1.20;;;;;;;;;;5022379;28;20068;-81
2023/10/30 07:21:28;;;;;;;6.22;1.23;;;;;;;;;;5025643;28;20029;-81
2023/10/30 07:23:53;;;;;;;8.35;1.58;;;;;;;;;;5030345;28;20039;-94
2023/10/30 07:26:21;;;;;;;10.38;1.88;;;;;;;;;;5031984;28;20335;-93
2023/10/30 07:28:48;;;;;;;10.63;1.88;;;;;;;;;;5031153;28;20516;-93
2023/10/30 07:31:14;;;;;;;7.95;1.38;;;;;;;;;;5029363;28;20548;-91
2023/10/30 07:33:39;;;;;;;6.35;1.40;;;;;;;;;;5048093;28;20013;-88
2023/10/30 07:36:05;;;;;;;6.38;1.40;;;;;;;;;;5023222;28;20481;-87
2023/10/30 07:38:31;;;;;;;5.22;1.30;;;;;;;;;;5027080;28;20043;-88
2023/10/30 07:40:56;;;;;;;7.40;1.50;;;;;;;;;;5030302;28;20116;-89
2023/10/30 07:43:21;;;;;;;6.50;1.30;;;;;;;;;;5033051;28;20037;-89
2023/10/30 07:45:48;;;;;;;5.60;1.40;;;;;;;;;;5040236;28;21025;-88
2023/10/30 07:48:14;;;;;;;5.40;1.65;;;;;;;;;;5025183;28;20354;-88
2023/10/30 07:50:40;;;;;;;6.55;1.25;;;;;;;;;;5025814;28;20577;-88
2023/10/30 07:53:06;;;;;;;8.95;1.75;;;;;;;;;;5024317;28;20032;-88
2023/10/30 07:55:33;;;;;;;8.57;1.98;;;;;;;;;;5024847;28;20386;-84
2023/10/30 07:57:58;;;;;;;9.40;1.65;;;;;;;;;;5023499;28;20612;-83
2023/10/30 08:00:23;;;;;;;6.03;1.63;;;;;;;;;;5031179;28;20115;-82
2023/10/30 08:02:49;;;;;;;6.75;1.95;;;;;;;;;;5020734;28;20033;-83
2023/10/30 08:05:15;;;;;;;8.45;1.85;;;;;;;;;;5015101;28;20029;-84
2023/10/30 08:07:41;;;;;;;6.88;1.80;;;;;;;;;;5021580;28;20037;-83
2023/10/30 08:10:07;;;;;;;6.47;1.50;;;;;;;;;;5021550;28;20072;-82
2023/10/30 08:12:33;;;;;;;6.68;1.58;;;;;;;;;;5031810;28;20067;-83
2023/10/30 08:14:59;;;;;;;9.70;1.77;;;;;;;;;;5026347;28;20470;-83
2023/10/30 08:17:25;;;;;;;9.20;1.80;;;;;;;;;;5027582;28;20021;-83
2023/10/30 08:19:51;;;;;;;4.20;1.17;;;;;;;;;;5007330;28;20541;-83
2023/10/30 08:22:16;;;;;;;7.60;1.40;;;;;;;;;;5023279;28;20123;-82
2023/10/30 08:24:41;;;;;;;11.00;2.00;;;;;;;;;;5024527;28;20030;-84
2023/10/30 08:27:07;;;;;;;7.35;1.38;;;;;;;;;;5022098;28;20040;-83
2023/10/30 08:29:32;;;;;;;8.57;1.45;;;;;;;;;;5025825;28;20076;-83
2023/10/30 08:31:58;;;;;;;5.78;1.45;;;;;;;;;;5020163;28;20064;-83
2023/10/30 08:34:23;;;;;;;6.32;1.50;;;;;;;;;;5027192;28;20090;-83
2023/10/30 08:36:48;;;;;;;6.57;2.15;;;;;;;;;;5028676;28;20025;-83
2023/10/30 08:39:14;;;;;;;7.80;1.42;;;;;;;;;;5024823;28;20033;-83
2023/10/30 08:41:39;;;;;;;6.05;1.23;;;;;;;;;;5026766;28;20090;-83
2023/10/30 08:44:05;;;;;;;10.02;1.70;;;;;;;;;;5024871;28;20021;-82
2023/10/30 08:46:32;;;;;;;10.00;1.98;;;;;;;;;;5018950;28;20029;-83
2023/10/30 08:48:58;;;;;;;8.35;1.38;;;;;;;;;;5028285;28;21545;-84
2023/10/30 08:51:23;;;;;;;8.75;1.17;;;;;;;;;;5028431;28;20029;-83
2023/10/30 08:53:50;;;;;;;8.40;1.50;;;;;;;;;;5027339;28;20025;-81
2023/10/30 08:56:17;;;;;;;13.52;1.60;;;;;;;;;;5027358;28;20029;-81
2023/10/30 08:58:43;;;;;;;8.52;1.40;;;;;;;;;;5025900;28;20037;-82
2023/10/30 09:01:08;;;;;;;7.80;1.60;;;;;;;;;;5026956;28;21539;-81
2023/10/30 09:03:34;;;;;;;10.02;1.50;;;;;;;;;;5029672;28;20021;-81
2023/10/30 09:05:59;;;;;;;11.18;1.55;;;;;;;;;;5027655;28;20532;-81
2023/10/30 09:08:25;;;;;;;7.00;1.60;;;;;;;;;;5030505;28;20135;-82
2023/10/30 09:10:51;;;;;;;6.85;1.38;;;;;;;;;;5031223;28;20037;-81
2023/10/30 09:13:16;;;;;;;9.60;1.50;;;;;;;;;;5024173;28;20057;-82
2023/10/30 09:15:42;;;;;;;8.27;1.42;;;;;;;;;;5030908;28;20519;-82
2023/10/30 09:18:10;;;;;;;10.05;1.90;;;;;;;;;;5024146;28;20030;-82
2023/10/30 09:20:35;;;;;;;10.23;1.85;;;;;;;;;;5026763;28;20025;-84
2023/10/30 09:23:02;;;;;;;12.60;2.00;;;;;;;;;;5025048;28;20038;-82
2023/10/30 09:25:27;;;;;;;5.15;1.27;;;;;;;;;;5027144;28;20028;-81
2023/10/30 09:27:53;;;;;;;9.32;1.83;;;;;;;;;;5028773;28;20108;-82
2023/10/30 09:30:19;;;;;;;7.07;1.50;;;;;;;;;;5024600;28;20508;-82
2023/10/30 09:32:44;;;;;;;7.05;1.60;;;;;;;;;;5042409;28;20060;-83
2023/10/30 09:35:10;;;;;;;10.27;1.70;;;;;;;;;;5041969;28;20022;-82
2023/10/30 09:37:37;;;;;;;9.77;1.98;;;;;;;;;;5026259;28;20061;-83
2023/10/30 09:40:04;;;;;;;11.00;2.25;;;;;;;;;;5030420;28;20485;-83
2023/10/30 09:42:32;;;;;;;6.30;1.60;;;;;;;;;;5031669;28;20061;-83
2023/10/30 09:44:59;;;;;;;8.50;1.98;;;;;;;;;;5032143;28;20047;-82
2023/10/30 09:47:27;;;;;;;8.20;2.22;;;;;;;;;;5029063;28;20429;-83
2023/10/30 09:49:54;;;;;;;8.98;1.70;;;;;;;;;;5019488;28;20030;-84
2023/10/30 09:52:21;;;;;;;5.40;1.20;;;;;;;;;;5037900;28;20367;-83
2023/10/30 09:54:48;;;;;;;9.43;1.60;;;;;;;;;;5025092;28;20021;-83
2023/10/30 09:57:14;;;;;;;8.07;1.55;;;;;;;;;;5041361;28;21066;-83
2023/10/30 09:59:42;;;;;;;3.35;1.10;;;;;;;;;;5025625;28;20026;-84
2023/10/30 10:02:08;;;;;;;8.98;1.73;;;;;;;;;;5019476;28;20034;-83
2023/10/30 10:04:37;;;;;;;10.20;2.10;;;;;;;;;;5031059;28;20503;-82
2023/10/30 10:07:03;;;;;;;7.07;1.45;;;;;;;;;;5029601;28;20524;-82
2023/10/30 10:09:28;;;;;;;4.55;1.20;;;;;;;;;;5028490;28;20026;-82
2023/10/30 10:11:54;;;;;;;7.43;1.35;;;;;;;;;;5026136;28;20021;-81
2023/10/30 10:14:20;;;;;;;6.32;1.17;;;;;;;;;;5024238;28;20080;-81
2023/10/30 10:16:45;;;;;;;6.75;1.50;;;;;;;;;;5026037;28;20025;-82
2023/10/30 10:19:21;;;;;;;6.88;1.35;;;;;;;;;;5030132;28;20075;-82
2023/10/30 10:21:51;;;;;;;8.35;1.85;;;;;;;;;;5029341;28;20033;-82
2023/10/30 10:24:27;;;;;;;6.22;1.27;;;;;;;;;;5029037;28;20117;-82
2023/10/30 10:26:52;;;;;;;6.78;1.38;;;;;;;;;;5024657;28;20449;-82
2023/10/30 10:29:24;;;;;;;5.82;1.52;;;;;;;;;;5028693;28;20025;-81
2023/10/30 10:31:50;;;;;;;7.07;1.38;;;;;;;;;;5030122;28;20388;-81
2023/10/30 10:34:15;;;;;;;8.38;1.17;;;;;;;;;;5028286;28;20104;-81
2023/10/30 10:36:41;;;;;;;8.35;1.25;;;;;;;;;;5031064;28;20024;-81
2023/10/30 10:39:06;;;;;;;6.13;1.20;;;;;;;;;;5027382;28;20029;-81
2023/10/30 10:41:32;;;;;;;8.05;1.50;;;;;;;;;;5037379;28;20048;-83
2023/10/30 10:43:59;;;;;;;9.15;1.92;;;;;;;;;;5031397;28;20025;-82
2023/10/30 10:46:25;;;;;;;7.18;1.10;;;;;;;;;;5028627;28;20037;-81
2023/10/30 10:48:50;;;;;;;4.90;0.93;;;;;;;;;;5016076;28;20121;-82
2023/10/30 10:51:26;;;;;;;5.25;1.25;;;;;;;;;;5028746;28;20032;-81
2023/10/30 10:53:52;;;;;;;7.07;1.27;;;;;;;;;;5021188;28;20036;-81
2023/10/30 10:56:19;;;;;;;7.38;1.40;;;;;;;;;;5036066;28;20072;-81
2023/10/30 10:58:58;;;;;;;7.25;1.17;;;;;;;;;;5028523;28;20481;-82
2023/10/30 11:01:26;;;;;;;6.95;1.38;;;;;;;;;;5025122;28;20076;-82
2023/10/30 11:03:52;;;;;;;7.82;1.55;;;;;;;;;;5022503;28;20034;-81
2023/10/30 11:06:18;;;;;;;5.97;1.20;;;;;;;;;;5029355;28;20082;-81
2023/10/30 11:08:56;;;;;;;7.38;1.15;;;;;;;;;;5029288;28;20032;-82
2023/10/30 11:12:11;;;;;;;5.72;1.27;;;;;;;;;;5028513;28;20535;-82
2023/10/30 11:15:03;;;;;;;5.38;1.30;;;;;;;;;;5016373;28;20124;-82
2023/10/30 11:17:28;;;;;;;6.07;1.40;;;;;;;;;;5025671;28;20029;-84
2023/10/30 11:20:02;;;;;;;5.03;1.45;;;;;;;;;;5028310;28;20043;-81
2023/10/30 11:22:41;;;;;;;6.68;1.40;;;;;;;;;;5039589;28;20033;-82
2023/10/30 11:25:36;;;;;;;6.75;1.27;;;;;;;;;;5032707;28;20033;-82
2023/10/30 11:28:02;;;;;;;5.47;1.23;;;;;;;;;;5025459;28;20489;-82
2023/10/30 11:30:31;;;;;;;5.68;1.27;;;;;;;;;;5028658;28;20024;-82
2023/10/30 11:32:58;;;;;;;5.30;1.20;;;;;;;;;;5021825;28;20032;-83
2023/10/30 11:35:24;;;;;;;7.15;1.15;;;;;;;;;;5030034;28;20370;-81
2023/10/30 11:37:51;;;;;;;7.40;1.40;;;;;;;;;;5029404;28;20074;-82
2023/10/30 11:40:17;;;;;;;5.07;1.00;;;;;;;;;;5026153;28;20393;-82
2023/10/30 11:42:43;;;;;;;7.57;1.30;;;;;;;;;;5025203;28;20029;-82
2023/10/30 11:45:24;;;;;;;7.82;1.30;;;;;;;;;;5021089;28;20116;-82
2023/10/30 11:48:25;;;;;;;4.38;1.17;;;;;;;;;;5024264;28;20403;-81
2023/10/30 11:50:54;;;;;;;6.88;1.40;;;;;;;;;;5030373;28;20520;-83
2023/10/30 11:53:21;;;;;;;6.07;1.00;;;;;;;;;;5021929;28;20021;-83
2023/10/30 11:55:50;;;;;;;5.35;1.38;;;;;;;;;;5024852;28;20029;-82
2023/10/30 11:58:15;;;;;;;4.82;1.10;;;;;;;;;;5020403;28;20688;-81
2023/10/30 12:00:46;;;;;;;7.55;1.40;;;;;;;;;;5031966;28;20051;-84
2023/10/30 12:03:11;;;;;;;6.38;1.55;;;;;;;;;;5022796;28;20654;-82
2023/10/30 12:05:37;;;;;;;7.18;1.85;;;;;;;;;;5034661;28;20017;-82
2023/10/30 12:08:03;;;;;;;4.60;1.08;;;;;;;;;;5026619;28;20060;-81
2023/10/30 12:10:28;;;;;;;5.13;1.23;;;;;;;;;;5038764;28;20099;-81
2023/10/30 12:12:54;;;;;;;4.47;0.88;;;;;;;;;;5025958;28;20203;-82
2023/10/30 12:15:20;;;;;;;7.10;1.23;;;;;;;;;;5024665;28;20040;-81
2023/10/30 12:17:45;;;;;;;6.28;0.90;;;;;;;;;;5026284;28;20413;-81
2023/10/30 12:20:11;;;;;;;6.15;1.13;;;;;;;;;;5026582;28;20051;-82
2023/10/30 12:22:41;;;;;;;3.33;1.20;;;;;;;;;;5026525;28;20025;-82
2023/10/30 12:25:08;;;;;;;7.00;1.10;;;;;;;;;;5038920;28;20037;-82
2023/10/30 12:27:33;;;;;;;4.72;1.20;;;;;;;;;;5019089;28;20497;-81
2023/10/30 12:30:09;;;;;;;4.57;1.20;;;;;;;;;;5017709;28;20060;-82
2023/10/30 12:32:34;;;;;;;3.97;0.93;;;;;;;;;;5019578;28;20425;-81
2023/10/30 12:35:13;;;;;;;7.72;1.10;;;;;;;;;;5016863;28;20024;-91
2023/10/30 12:37:40;;;;;;;3.35;1.00;;;;;;;;;;5026695;28;20013;-88
2023/10/30 12:40:10;;;;;;;5.10;1.13;;;;;;;;;;5034097;28;20365;-88
2023/10/30 12:42:40;;;;;;;6.32;1.30;;;;;;;;;;5029560;28;20033;-90
2023/10/30 12:45:11;;;;;;;3.78;1.10;;;;;;;;;;5031867;28;20051;-88
2023/10/30 12:47:41;;;;;;;8.32;1.70;;;;;;;;;;5028499;28;20026;-90
2023/10/30 12:50:08;;;;;;;7.20;2.20;;;;;;;;;;5032729;28;20099;-88
2023/10/30 12:52:34;;;;;;;5.90;1.00;;;;;;;;;;5026206;28;20026;-89
2023/10/30 12:55:00;;;;;;;4.38;1.10;;;;;;;;;;5048037;28;20030;-92
2023/10/30 12:57:25;;;;;;;4.03;1.00;;;;;;;;;;5031070;28;20028;-89
2023/10/30 12:59:51;;;;;;;5.20;1.02;;;;;;;;;;5025648;28;20029;-92
2023/10/30 13:02:16;;;;;;;3.67;1.10;;;;;;;;;;5030627;28;20205;-91
2023/10/30 13:04:42;;;;;;;4.25;1.00;;;;;;;;;;5030827;28;20042;-88
2023/10/30 13:07:07;;;;;;;5.28;1.00;;;;;;;;;;5033779;28;20116;-91
2023/10/30 13:09:33;;;;;;;2.80;0.90;;;;;;;;;;5033669;28;20107;-91
2023/10/30 13:11:58;;;;;;;5.70;1.00;;;;;;;;;;5029821;28;20079;-92
2023/10/30 13:14:24;;;;;;;3.67;1.00;;;;;;;;;;5029785;28;20083;-91
2023/10/30 13:16:49;;;;;;;3.75;0.95;;;;;;;;;;5029012;28;20037;-89
2023/10/30 13:19:15;;;;;;;4.40;1.00;;;;;;;;;;5025333;28;20061;-92
2023/10/30 13:21:41;;;;;;;4.22;1.10;;;;;;;;;;5032368;28;20029;-90
2023/10/30 13:24:07;;;;;;;4.43;1.10;;;;;;;;;;5031998;28;20033;-91
2023/10/30 13:26:33;;;;;;;2.83;0.88;;;;;;;;;;5036430;28;20035;-87
2023/10/30 13:28:59;;;;;;;6.93;1.25;;;;;;;;;;5033892;28;20029;-81
2023/10/30 13:31:24;;;;;;;2.00;0.82;;;;;;;;;;5027228;28;21901;-83
2023/10/30 13:33:50;;;;;;;4.30;1.08;;;;;;;;;;5025277;28;20045;-81
2023/10/30 13:36:19;;;;;;;3.45;1.02;;;;;;;;;;5022984;28;20499;-81
2023/10/30 13:38:45;;;;;;;4.55;1.00;;;;;;;;;;5027512;28;20056;-82
2023/10/30 13:41:10;;;;;;;3.05;1.00;;;;;;;;;;5033685;28;20480;-81
2023/10/30 13:43:36;;;;;;;4.13;1.20;;;;;;;;;;5030819;28;20083;-87
2023/10/30 13:46:02;;;;;;;3.03;1.00;;;;;;;;;;5026843;28;20025;-87
2023/10/30 13:48:27;;;;;;;2.72;0.90;;;;;;;;;;5028541;28;20033;-88
2023/10/30 13:50:52;;;;;;;2.85;0.93;;;;;;;;;;5023647;28;20033;-87
2023/10/30 13:53:18;;;;;;;4.22;1.23;;;;;;;;;;5025083;28;20033;-87
2023/10/30 13:55:43;;;;;;;4.28;1.00;;;;;;;;;;5023708;28;20045;-87
2023/10/30 13:58:09;;;;;;;4.22;1.00;;;;;;;;;;5024852;28;20394;-87
2023/10/30 14:00:34;;;;;;;3.63;1.00;;;;;;;;;;5024682;28;20052;-87
2023/10/30 14:03:00;;;;;;;5.03;1.10;;;;;;;;;;5031573;28;21052;-87
2023/10/30 14:05:28;;;;;;;7.43;1.30;;;;;;;;;;5045237;28;20032;-86
2023/10/30 14:07:54;;;;;;;4.88;1.02;;;;;;;;;;5023897;28;20029;-88
2023/10/30 14:10:19;;;;;;;4.47;1.15;;;;;;;;;;5027805;28;20541;-88
2023/10/30 14:12:44;;;;;;;5.43;1.08;;;;;;;;;;5030985;28;20033;-87
2023/10/30 14:15:13;;;;;;;1.90;0.90;;;;;;;;;;5030111;28;20496;-87
2023/10/30 14:17:40;;;;;;;3.83;1.15;;;;;;;;;;5016066;28;20030;-86
2023/10/30 14:20:06;;;;;;;2.83;1.00;;;;;;;;;;5026432;28;20052;-86
2023/10/30 14:22:33;;;;;;;2.53;0.90;;;;;;;;;;5024270;28;20420;-86
2023/10/30 14:24:58;;;;;;;5.90;1.20;;;;;;;;;;5025815;28;20033;-87
2023/10/30 14:27:24;;;;;;;3.30;0.90;;;;;;;;;;5029079;28;20029;-87
2023/10/30 14:29:50;;;;;;;4.20;1.05;;;;;;;;;;5027930;28;20485;-87
2023/10/30 14:32:15;;;;;;;4.85;1.58;;;;;;;;;;5023888;28;20068;-85
2023/10/30 14:34:41;;;;;;;3.10;1.13;;;;;;;;;;5023143;28;20421;-86
2023/10/30 14:37:06;;;;;;;3.63;1.17;;;;;;;;;;5023407;28;20389;-86
2023/10/30 14:39:32;;;;;;;4.85;1.30;;;;;;;;;;5030238;28;20033;-85